createdAt,value
2022-07-29T00:00:26.257Z,1.60
2022-07-29T00:01:26.257Z,1.50
2022-07-29T00:02:26.274Z,1.30
2022-07-29T00:03:26.340Z,1.30
2022-07-29T00:04:26.305Z,1.50
2022-07-29T00:05:26.213Z,1.80
2022-07-29T00:06:26.194Z,1.30
2022-07-29T00:07:26.195Z,1.40
2022-07-29T00:08:26.185Z,1.20
2022-07-29T00:09:26.337Z,1.50
2022-07-29T00:10:26.989Z,1.70
2022-07-29T00:11:26.138Z,1.30
2022-07-29T00:12:26.983Z,1.40
2022-07-29T00:13:32.479Z,1.40
2022-07-29T00:14:27.101Z,1.10
2022-07-29T00:15:26.110Z,1.30
2022-07-29T00:16:26.162Z,1.40
2022-07-29T00:17:26.076Z,1.60
2022-07-29T00:18:26.072Z,1.40
2022-07-29T00:19:26.052Z,1.40
2022-07-29T00:20:26.044Z,1.30
2022-07-29T00:21:26.023Z,1.40
2022-07-29T00:22:26.014Z,1.50
2022-07-29T00:23:26.027Z,1.50
2022-07-29T00:24:25.986Z,1.30
2022-07-29T00:25:25.985Z,1.50
2022-07-29T00:26:25.975Z,1.40
2022-07-29T00:27:25.973Z,1.30
2022-07-29T00:28:25.964Z,1.20
2022-07-29T00:29:34.710Z,1.20
2022-07-29T00:30:26.967Z,1.30
2022-07-29T00:31:26.002Z,1.30
2022-07-29T00:32:25.905Z,1.20
2022-07-29T00:33:25.917Z,1.30
2022-07-29T00:34:25.904Z,1.00
2022-07-29T00:35:25.868Z,1.50
2022-07-29T00:36:25.849Z,1.10
2022-07-29T00:37:25.861Z,1.60
2022-07-29T00:38:25.859Z,1.70
2022-07-29T00:39:25.822Z,1.30
2022-07-29T00:40:25.810Z,1.40
2022-07-29T00:41:25.800Z,1.20
2022-07-29T00:42:25.785Z,1.30
2022-07-29T00:43:25.794Z,1.30
2022-07-29T00:44:25.778Z,1.10
2022-07-29T00:45:25.763Z,1.30
2022-07-29T00:46:25.811Z,1.20
2022-07-29T00:47:25.736Z,1.00
2022-07-29T00:48:25.726Z,1.40
2022-07-29T00:49:25.771Z,1.30
2022-07-29T00:50:25.694Z,1.10
2022-07-29T00:51:25.695Z,1.30
2022-07-29T00:52:25.665Z,1.30
2022-07-29T00:53:25.688Z,0.90
2022-07-29T00:54:25.646Z,1.50
2022-07-29T00:55:25.669Z,1.40
2022-07-29T00:56:25.667Z,1.20
2022-07-29T00:57:25.625Z,0.90
2022-07-29T00:58:25.597Z,1.10
2022-07-29T00:59:25.597Z,1.10
2022-07-29T01:00:26.689Z,1.00
2022-07-29T01:01:25.604Z,1.20
2022-07-29T01:02:25.613Z,1.20
2022-07-29T01:03:25.546Z,1.10
2022-07-29T01:04:25.529Z,1.40
2022-07-29T01:05:25.631Z,0.90
2022-07-29T01:06:26.508Z,1.30
2022-07-29T01:07:25.509Z,1.20
2022-07-29T01:08:25.481Z,1.10
2022-07-29T01:09:42.904Z,1.20
2022-07-29T01:10:26.459Z,1.20
2022-07-29T01:11:25.450Z,1.20
2022-07-29T01:12:25.449Z,1.10
2022-07-29T01:13:25.432Z,1.10
2022-07-29T01:14:25.413Z,1.50
2022-07-29T01:15:25.403Z,1.10
2022-07-29T01:16:25.414Z,1.00
2022-07-29T01:17:25.394Z,1.20
2022-07-29T01:18:25.368Z,1.10
2022-07-29T01:19:25.363Z,1.30
2022-07-29T01:20:25.344Z,1.10
2022-07-29T01:21:26.336Z,1.30
2022-07-29T01:22:25.338Z,1.20
2022-07-29T01:23:25.325Z,1.50
2022-07-29T01:24:25.296Z,1.30
2022-07-29T01:25:25.296Z,1.60
2022-07-29T01:26:25.279Z,1.00
2022-07-29T01:27:25.277Z,1.20
2022-07-29T01:28:25.255Z,1.30
2022-07-29T01:29:25.247Z,1.10
2022-07-29T01:30:25.228Z,1.20
2022-07-29T01:31:26.636Z,1.60
2022-07-29T01:32:28.429Z,1.30
2022-07-29T01:33:25.212Z,1.30
2022-07-29T01:34:25.190Z,1.30
2022-07-29T01:35:25.169Z,1.30
2022-07-29T01:36:25.170Z,1.20
2022-07-29T01:37:25.166Z,1.70
2022-07-29T01:38:25.140Z,1.30
2022-07-29T01:39:25.133Z,1.10
2022-07-29T01:40:25.121Z,1.30
2022-07-29T01:41:25.102Z,1.30
2022-07-29T01:42:25.102Z,1.00
2022-07-29T01:43:25.082Z,1.30
2022-07-29T01:44:25.081Z,1.30
2022-07-29T01:45:25.063Z,1.10
2022-07-29T01:46:25.091Z,1.20
2022-07-29T01:47:25.044Z,1.10
2022-07-29T01:48:25.024Z,1.10
2022-07-29T01:49:25.050Z,1.20
2022-07-29T01:50:25.004Z,1.30
2022-07-29T01:51:24.997Z,1.00
2022-07-29T01:52:24.995Z,1.30
2022-07-29T01:53:24.976Z,1.10
2022-07-29T01:54:24.958Z,1.10
2022-07-29T01:55:24.960Z,1.40
2022-07-29T01:56:24.943Z,1.00
2022-07-29T01:57:24.939Z,1.30
2022-07-29T01:58:24.910Z,1.30
2022-07-29T01:59:24.907Z,1.10
2022-07-29T02:00:24.894Z,1.20
2022-07-29T02:01:24.963Z,1.10
2022-07-29T02:02:24.881Z,1.00
2022-07-29T02:03:24.861Z,1.40
2022-07-29T02:04:29.102Z,1.20
2022-07-29T02:05:25.905Z,1.20
2022-07-29T02:06:24.821Z,1.20
2022-07-29T02:07:24.831Z,0.90
2022-07-29T02:08:24.803Z,0.90
2022-07-29T02:09:24.791Z,1.20
2022-07-29T02:11:42.358Z,1.30
2022-07-29T02:12:42.336Z,1.10
2022-07-29T02:13:42.317Z,1.30
2022-07-29T02:14:42.310Z,1.00
2022-07-29T02:15:42.374Z,1.10
2022-07-29T02:16:42.299Z,1.20
2022-07-29T02:17:42.278Z,1.20
2022-07-29T02:18:42.267Z,1.30
2022-07-29T02:19:42.251Z,1.10
2022-07-29T02:20:42.241Z,1.00
2022-07-29T02:21:42.253Z,1.20
2022-07-29T02:22:42.232Z,1.30
2022-07-29T02:23:44.999Z,1.00
2022-07-29T02:24:43.203Z,1.10
2022-07-29T02:25:42.200Z,1.40
2022-07-29T02:26:42.193Z,1.10
2022-07-29T02:27:42.163Z,1.20
2022-07-29T02:28:42.155Z,1.10
2022-07-29T02:29:42.145Z,1.10
2022-07-29T02:30:42.144Z,1.40
2022-07-29T02:31:42.187Z,1.00
2022-07-29T02:32:42.117Z,1.10
2022-07-29T02:33:42.102Z,1.40
2022-07-29T02:34:42.087Z,1.00
2022-07-29T02:35:42.066Z,1.30
2022-07-29T02:36:42.079Z,1.00
2022-07-29T02:37:42.054Z,1.20
2022-07-29T02:38:42.039Z,1.10
2022-07-29T02:39:42.028Z,1.20
2022-07-29T02:40:42.055Z,1.10
2022-07-29T02:41:42.018Z,1.10
2022-07-29T02:42:41.999Z,1.20
2022-07-29T02:43:41.979Z,1.30
2022-07-29T02:44:41.970Z,1.10
2022-07-29T02:45:41.959Z,1.00
2022-07-29T02:46:41.977Z,1.10
2022-07-29T02:47:42.315Z,1.10
2022-07-29T02:48:41.961Z,1.20
2022-07-29T02:49:41.911Z,1.10
2022-07-29T02:50:41.904Z,0.90
2022-07-29T02:51:44.647Z,1.10
2022-07-29T02:52:41.882Z,1.10
2022-07-29T02:53:41.863Z,1.10
2022-07-29T02:54:41.854Z,1.20
2022-07-29T02:55:41.843Z,1.30
2022-07-29T02:56:41.843Z,1.00
2022-07-29T02:57:54.807Z,1.30
2022-07-29T02:58:42.804Z,1.20
2022-07-29T02:59:41.797Z,1.00
2022-07-29T03:00:41.795Z,1.20
2022-07-29T03:01:41.830Z,0.90
2022-07-29T03:02:41.758Z,1.10
2022-07-29T03:03:41.746Z,1.20
2022-07-29T03:04:41.769Z,1.20
2022-07-29T03:05:41.737Z,1.30
2022-07-29T03:06:41.746Z,1.40
2022-07-29T03:07:41.708Z,1.10
2022-07-29T03:08:41.699Z,1.40
2022-07-29T03:09:41.689Z,1.20
2022-07-29T03:10:41.680Z,1.10
2022-07-29T03:11:48.007Z,1.10
2022-07-29T03:12:42.650Z,1.50
2022-07-29T03:13:41.640Z,1.50
2022-07-29T03:14:41.628Z,1.20
2022-07-29T03:15:41.702Z,1.20
2022-07-29T03:16:41.652Z,0.90
2022-07-29T03:17:41.582Z,1.00
2022-07-29T03:18:41.581Z,1.80
2022-07-29T03:19:41.571Z,1.00
2022-07-29T03:20:41.563Z,1.40
2022-07-29T03:21:41.562Z,1.10
2022-07-29T03:22:41.534Z,1.20
2022-07-29T03:23:41.516Z,1.10
2022-07-29T03:24:41.525Z,1.20
2022-07-29T03:25:41.507Z,1.10
2022-07-29T03:26:41.505Z,1.10
2022-07-29T03:27:41.475Z,1.10
2022-07-29T03:28:41.466Z,1.00
2022-07-29T03:29:41.446Z,1.00
2022-07-29T03:30:42.447Z,1.30
2022-07-29T03:31:41.497Z,1.00
2022-07-29T03:32:41.417Z,0.90
2022-07-29T03:33:41.408Z,1.10
2022-07-29T03:34:41.401Z,1.20
2022-07-29T03:35:41.380Z,1.10
2022-07-29T03:36:41.386Z,1.10
2022-07-29T03:37:41.368Z,1.10
2022-07-29T03:38:41.349Z,1.30
2022-07-29T03:39:41.342Z,1.50
2022-07-29T03:40:41.327Z,1.00
2022-07-29T03:41:41.342Z,1.00
2022-07-29T03:42:41.300Z,1.10
2022-07-29T03:43:49.116Z,1.10
2022-07-29T03:44:42.281Z,1.20
2022-07-29T03:45:41.290Z,1.10
2022-07-29T03:46:41.340Z,1.10
2022-07-29T03:47:50.076Z,1.10
2022-07-29T03:48:42.260Z,1.20
2022-07-29T03:49:41.252Z,1.30
2022-07-29T03:50:41.234Z,1.50
2022-07-29T03:51:41.203Z,1.20
2022-07-29T03:52:41.185Z,1.30
2022-07-29T03:53:41.185Z,1.20
2022-07-29T03:54:41.176Z,1.20
2022-07-29T03:55:41.175Z,1.20
2022-07-29T03:56:41.168Z,1.00
2022-07-29T03:57:41.134Z,1.20
2022-07-29T03:58:41.118Z,1.10
2022-07-29T03:59:41.116Z,1.20
2022-07-29T04:00:41.116Z,1.10
2022-07-29T04:01:41.164Z,1.00
2022-07-29T04:02:41.088Z,1.10
2022-07-29T04:03:41.134Z,1.10
2022-07-29T04:04:41.051Z,1.10
2022-07-29T04:05:41.069Z,1.10
2022-07-29T04:06:41.040Z,1.00
2022-07-29T04:07:41.022Z,1.30
2022-07-29T04:08:41.008Z,1.00
2022-07-29T04:09:41.001Z,1.20
2022-07-29T04:10:40.999Z,1.10
2022-07-29T04:12:02.612Z,0.90
2022-07-29T04:12:41.962Z,1.10
2022-07-29T04:13:40.962Z,1.10
2022-07-29T04:14:40.942Z,1.00
2022-07-29T04:15:40.999Z,1.20
2022-07-29T04:16:40.923Z,1.10
2022-07-29T04:17:40.926Z,1.20
2022-07-29T04:18:40.896Z,1.10
2022-07-29T04:19:40.894Z,1.10
2022-07-29T04:20:40.885Z,1.10
2022-07-29T04:21:40.876Z,1.10
2022-07-29T04:22:40.854Z,0.90
2022-07-29T04:23:47.947Z,1.00
2022-07-29T04:24:44.344Z,1.20
2022-07-29T04:25:40.836Z,1.30
2022-07-29T04:26:40.797Z,1.10
2022-07-29T04:27:40.798Z,1.60
2022-07-29T04:28:40.788Z,1.10
2022-07-29T04:29:56.243Z,0.90
2022-07-29T04:30:41.837Z,1.50
2022-07-29T04:31:40.789Z,1.30
2022-07-29T04:32:40.739Z,1.00
2022-07-29T04:33:40.741Z,1.50
2022-07-29T04:34:40.711Z,1.20
2022-07-29T04:35:45.737Z,1.00
2022-07-29T04:36:41.689Z,1.20
2022-07-29T04:37:40.681Z,1.30
2022-07-29T04:38:40.671Z,1.50
2022-07-29T04:39:40.672Z,1.20
2022-07-29T04:40:40.643Z,1.20
2022-07-29T04:41:40.642Z,1.30
2022-07-29T04:42:46.759Z,1.20
2022-07-29T04:43:41.615Z,1.30
2022-07-29T04:44:43.069Z,1.40
2022-07-29T04:45:40.594Z,1.30
2022-07-29T04:46:40.630Z,1.20
2022-07-29T04:47:40.567Z,0.90
2022-07-29T04:48:40.563Z,1.20
2022-07-29T04:49:40.585Z,1.10
2022-07-29T04:50:40.533Z,1.10
2022-07-29T04:51:40.518Z,1.30
2022-07-29T04:52:40.526Z,1.20
2022-07-29T04:53:40.496Z,1.10
2022-07-29T04:54:40.501Z,1.20
2022-07-29T04:55:40.479Z,1.00
2022-07-29T04:56:40.469Z,1.00
2022-07-29T04:57:40.460Z,1.10
2022-07-29T04:58:40.450Z,1.50
2022-07-29T04:59:40.448Z,1.30
2022-07-29T05:00:40.422Z,1.20
2022-07-29T05:01:40.447Z,1.20
2022-07-29T05:02:40.441Z,1.30
2022-07-29T05:03:40.412Z,1.20
2022-07-29T05:04:40.394Z,1.40
2022-07-29T05:05:40.363Z,1.20
2022-07-29T05:06:40.351Z,1.10
2022-07-29T05:07:40.352Z,1.30
2022-07-29T05:08:41.941Z,1.20
2022-07-29T05:09:40.340Z,1.20
2022-07-29T05:10:40.305Z,1.30
2022-07-29T05:11:40.295Z,1.40
2022-07-29T05:12:40.281Z,1.20
2022-07-29T05:13:45.094Z,1.30
2022-07-29T05:14:41.282Z,1.30
2022-07-29T05:15:40.299Z,1.50
2022-07-29T05:16:40.238Z,1.50
2022-07-29T05:17:40.226Z,1.30
2022-07-29T05:18:40.326Z,1.50
2022-07-29T05:19:40.227Z,1.40
2022-07-29T05:20:40.187Z,1.50
2022-07-29T05:21:40.177Z,1.50
2022-07-29T05:22:40.179Z,1.30
2022-07-29T05:23:40.163Z,1.30
2022-07-29T05:24:40.158Z,1.40
2022-07-29T05:25:43.471Z,1.40
2022-07-29T05:26:40.118Z,1.30
2022-07-29T05:27:40.109Z,1.40
2022-07-29T05:28:40.111Z,1.30
2022-07-29T05:29:44.221Z,1.50
2022-07-29T05:30:41.226Z,1.30
2022-07-29T05:31:40.078Z,1.70
2022-07-29T05:32:40.061Z,1.40
2022-07-29T05:33:40.055Z,1.40
2022-07-29T05:34:50.158Z,1.50
2022-07-29T05:35:41.024Z,1.50
2022-07-29T05:36:40.003Z,1.40
2022-07-29T05:37:40.004Z,1.20
2022-07-29T05:38:39.984Z,1.30
2022-07-29T05:39:48.705Z,1.20
2022-07-29T05:40:40.967Z,1.40
2022-07-29T05:41:39.954Z,1.10
2022-07-29T05:42:39.935Z,1.20
2022-07-29T05:43:39.933Z,1.60
2022-07-29T05:44:39.930Z,1.30
2022-07-29T05:45:50.015Z,1.40
2022-07-29T05:46:40.953Z,1.40
2022-07-29T05:47:39.904Z,1.40
2022-07-29T05:48:39.952Z,1.40
2022-07-29T05:49:39.878Z,1.60
2022-07-29T05:50:44.159Z,1.50
2022-07-29T05:51:39.848Z,1.30
2022-07-29T05:52:39.838Z,1.20
2022-07-29T05:53:39.821Z,1.40
2022-07-29T05:54:39.821Z,1.30
2022-07-29T05:55:39.800Z,1.50
2022-07-29T05:56:39.781Z,1.40
2022-07-29T05:57:39.771Z,1.10
2022-07-29T05:58:39.763Z,1.70
2022-07-29T05:59:39.773Z,1.40
2022-07-29T06:00:39.746Z,1.40
2022-07-29T06:01:39.782Z,1.20
2022-07-29T06:02:39.720Z,1.50
2022-07-29T06:03:39.704Z,1.40
2022-07-29T06:04:39.738Z,1.60
2022-07-29T06:05:39.700Z,1.50
2022-07-29T06:06:39.683Z,1.20
2022-07-29T06:07:39.665Z,1.30
2022-07-29T06:08:40.666Z,1.40
2022-07-29T06:09:39.657Z,1.30
2022-07-29T06:10:39.638Z,1.20
2022-07-29T06:11:39.616Z,1.30
2022-07-29T06:12:39.599Z,1.30
2022-07-29T06:13:39.594Z,1.50
2022-07-29T06:14:39.603Z,1.10
2022-07-29T06:15:39.613Z,1.50
2022-07-29T06:16:39.603Z,1.30
2022-07-29T06:17:39.547Z,1.40
2022-07-29T06:18:40.542Z,1.50
2022-07-29T06:19:39.549Z,1.60
2022-07-29T06:20:39.511Z,1.50
2022-07-29T06:21:42.039Z,1.20
2022-07-29T06:22:39.489Z,1.60
2022-07-29T06:23:39.492Z,1.40
2022-07-29T06:24:39.492Z,1.30
2022-07-29T06:25:40.432Z,1.50
2022-07-29T06:26:39.983Z,1.30
2022-07-29T06:27:39.649Z,1.10
2022-07-29T06:28:39.422Z,1.20
2022-07-29T06:29:39.430Z,1.70
2022-07-29T06:30:39.424Z,1.10
2022-07-29T06:31:39.447Z,1.40
2022-07-29T06:32:43.024Z,1.80
2022-07-29T06:33:39.412Z,1.30
2022-07-29T06:34:39.407Z,1.50
2022-07-29T06:35:42.083Z,1.10
2022-07-29T06:36:39.768Z,1.40
2022-07-29T06:37:39.316Z,1.00
2022-07-29T06:38:42.908Z,1.40
2022-07-29T06:39:40.327Z,1.50
2022-07-29T06:40:39.289Z,1.30
2022-07-29T06:41:39.297Z,1.20
2022-07-29T06:42:39.258Z,1.30
2022-07-29T06:43:51.834Z,1.30
2022-07-29T06:44:40.239Z,1.50
2022-07-29T06:45:39.261Z,1.50
2022-07-29T06:46:39.271Z,1.50
2022-07-29T06:47:39.199Z,1.40
2022-07-29T06:48:39.237Z,1.50
2022-07-29T06:49:39.185Z,1.10
2022-07-29T06:50:39.171Z,1.20
2022-07-29T06:51:39.161Z,1.10
2022-07-29T06:52:39.141Z,1.30
2022-07-29T06:53:39.174Z,1.40
2022-07-29T06:54:40.111Z,1.40
2022-07-29T06:55:39.112Z,1.30
2022-07-29T06:56:40.390Z,1.20
2022-07-29T06:57:39.111Z,1.30
2022-07-29T06:58:39.075Z,1.10
2022-07-29T06:59:39.074Z,1.30
2022-07-29T07:00:39.065Z,1.30
2022-07-29T07:01:39.268Z,1.10
2022-07-29T07:02:39.124Z,1.40
2022-07-29T07:03:39.025Z,1.70
2022-07-29T07:04:39.005Z,1.80
2022-07-29T07:05:39.016Z,1.30
2022-07-29T07:06:39.023Z,1.30
2022-07-29T07:07:39.040Z,1.40
2022-07-29T07:08:38.995Z,1.50
2022-07-29T07:09:40.542Z,1.40
2022-07-29T07:10:38.938Z,1.40
2022-07-29T07:11:38.963Z,1.40
2022-07-29T07:12:38.939Z,1.30
2022-07-29T07:13:38.910Z,1.20
2022-07-29T07:14:38.888Z,1.30
2022-07-29T07:15:40.061Z,1.20
2022-07-29T07:16:38.928Z,1.80
2022-07-29T07:17:38.888Z,1.20
2022-07-29T07:18:38.862Z,1.50
2022-07-29T07:19:38.840Z,1.60
2022-07-29T07:20:38.822Z,1.50
2022-07-29T07:21:38.832Z,1.60
2022-07-29T07:22:39.132Z,1.10
2022-07-29T07:23:38.813Z,1.50
2022-07-29T07:24:38.791Z,1.50
2022-07-29T07:25:38.794Z,1.70
2022-07-29T07:26:38.755Z,1.80
2022-07-29T07:27:38.774Z,1.30
2022-07-29T07:28:38.734Z,1.60
2022-07-29T07:29:39.704Z,1.70
2022-07-29T07:30:38.778Z,1.30
2022-07-29T07:31:38.799Z,1.90
2022-07-29T07:32:38.695Z,1.40
2022-07-29T07:33:38.678Z,1.90
2022-07-29T07:34:38.666Z,1.90
2022-07-29T07:35:38.675Z,1.60
2022-07-29T07:36:38.664Z,1.70
2022-07-29T07:37:38.648Z,1.60
2022-07-29T07:38:38.675Z,1.80
2022-07-29T07:39:38.620Z,1.70
2022-07-29T07:40:38.599Z,1.50
2022-07-29T07:41:38.598Z,1.70
2022-07-29T07:42:38.609Z,1.60
2022-07-29T07:43:38.570Z,1.40
2022-07-29T07:44:57.277Z,1.60
2022-07-29T07:45:39.570Z,1.70
2022-07-29T07:46:38.542Z,2.00
2022-07-29T07:47:38.753Z,1.80
2022-07-29T07:48:38.555Z,2.00
2022-07-29T07:49:38.501Z,1.50
2022-07-29T07:50:38.483Z,1.70
2022-07-29T07:51:38.480Z,1.80
2022-07-29T07:52:38.485Z,1.70
2022-07-29T07:53:38.445Z,1.60
2022-07-29T07:54:38.434Z,2.00
2022-07-29T07:56:07.952Z,1.70
2022-07-29T07:56:39.425Z,1.60
2022-07-29T07:57:38.419Z,1.70
2022-07-29T07:58:38.444Z,1.60
2022-07-29T07:59:38.395Z,2.10
2022-07-29T08:00:38.381Z,1.80
2022-07-29T08:01:47.899Z,2.00
2022-07-29T08:02:39.416Z,2.00
2022-07-29T08:03:38.337Z,1.90
2022-07-29T08:04:38.327Z,1.80
2022-07-29T08:05:38.307Z,1.70
2022-07-29T08:06:38.308Z,1.90
2022-07-29T08:07:38.298Z,1.90
2022-07-29T08:08:38.284Z,1.70
2022-07-29T08:09:38.268Z,1.80
2022-07-29T08:10:38.259Z,2.10
2022-07-29T08:11:38.239Z,1.90
2022-07-29T08:12:39.248Z,2.00
2022-07-29T08:13:38.223Z,2.10
2022-07-29T08:14:38.223Z,1.90
2022-07-29T08:15:38.229Z,1.90
2022-07-29T08:16:38.267Z,1.90
2022-07-29T08:17:38.181Z,2.00
2022-07-29T08:18:38.162Z,1.80
2022-07-29T08:19:38.143Z,2.10
2022-07-29T08:20:38.142Z,1.80
2022-07-29T08:21:38.124Z,2.10
2022-07-29T08:22:38.133Z,1.90
2022-07-29T08:23:47.087Z,1.90
2022-07-29T08:24:39.095Z,1.80
2022-07-29T08:25:38.727Z,2.10
2022-07-29T08:26:38.096Z,1.90
2022-07-29T08:27:45.260Z,1.90
2022-07-29T08:28:39.050Z,1.70
2022-07-29T08:29:38.037Z,1.70
2022-07-29T08:30:38.034Z,1.60
2022-07-29T08:31:38.095Z,1.90
2022-07-29T08:32:53.091Z,1.70
2022-07-29T08:33:39.007Z,1.80
2022-07-29T08:34:37.981Z,2.30
2022-07-29T08:35:37.966Z,1.80
2022-07-29T08:36:37.979Z,2.20
2022-07-29T08:37:37.940Z,1.70
2022-07-29T08:38:37.930Z,1.90
2022-07-29T08:39:37.920Z,1.90
2022-07-29T08:40:37.931Z,1.70
2022-07-29T08:41:37.950Z,1.70
2022-07-29T08:42:37.903Z,2.00
2022-07-29T08:43:37.872Z,1.80
2022-07-29T08:44:37.873Z,1.60
2022-07-29T08:45:37.898Z,1.90
2022-07-29T08:46:37.863Z,2.00
2022-07-29T08:47:37.843Z,1.90
2022-07-29T08:48:37.871Z,1.80
2022-07-29T08:49:37.838Z,1.90
2022-07-29T08:50:37.794Z,1.90
2022-07-29T08:51:49.267Z,1.90
2022-07-29T08:52:38.776Z,2.00
2022-07-29T08:53:37.768Z,2.00
2022-07-29T08:54:37.755Z,2.30
2022-07-29T08:55:37.735Z,2.00
2022-07-29T08:56:37.737Z,1.80
2022-07-29T08:57:37.706Z,1.90
2022-07-29T08:58:38.439Z,1.80
2022-07-29T08:59:37.689Z,1.90
2022-07-29T09:00:37.697Z,2.30
2022-07-29T09:01:42.752Z,1.80
2022-07-29T09:02:38.658Z,2.00
2022-07-29T09:03:37.678Z,1.90
2022-07-29T09:04:37.651Z,2.00
2022-07-29T09:05:40.680Z,2.00
2022-07-29T09:06:38.651Z,2.10
2022-07-29T09:07:37.599Z,1.70
2022-07-29T09:08:37.616Z,2.20
2022-07-29T09:09:37.621Z,1.80
2022-07-29T09:10:37.591Z,2.10
2022-07-29T09:11:37.551Z,2.20
2022-07-29T09:12:38.148Z,1.90
2022-07-29T09:13:37.525Z,2.00
2022-07-29T09:14:37.532Z,2.10
2022-07-29T09:15:37.611Z,2.10
2022-07-29T09:16:52.700Z,1.80
2022-07-29T09:17:38.515Z,1.90
2022-07-29T09:18:37.496Z,2.30
2022-07-29T09:19:37.465Z,1.90
2022-07-29T09:20:37.476Z,2.10
2022-07-29T09:21:37.456Z,2.40
2022-07-29T09:22:41.679Z,2.00
2022-07-29T09:23:37.407Z,2.10
2022-07-29T09:24:37.411Z,1.70
2022-07-29T09:25:37.407Z,2.00
2022-07-29T09:26:37.384Z,1.90
2022-07-29T09:27:37.368Z,1.70
2022-07-29T09:28:37.368Z,1.90
2022-07-29T09:29:37.349Z,2.30
2022-07-29T09:30:37.359Z,1.70
2022-07-29T09:31:37.398Z,2.30
2022-07-29T09:32:37.325Z,1.80
2022-07-29T09:33:37.301Z,1.70
2022-07-29T09:34:37.292Z,2.00
2022-07-29T09:35:37.291Z,1.90
2022-07-29T09:36:37.349Z,1.50
2022-07-29T09:37:37.274Z,1.80
2022-07-29T09:38:37.252Z,1.80
2022-07-29T09:39:37.235Z,1.80
2022-07-29T09:40:37.247Z,2.10
2022-07-29T09:41:37.203Z,1.80
2022-07-29T09:42:37.201Z,2.10
2022-07-29T09:43:37.195Z,2.10
2022-07-29T09:44:37.178Z,1.60
2022-07-29T09:45:37.183Z,1.90
2022-07-29T09:46:37.214Z,2.30
2022-07-29T09:47:37.144Z,1.70
2022-07-29T09:48:37.177Z,1.90
2022-07-29T09:49:37.138Z,1.80
2022-07-29T09:50:37.144Z,1.80
2022-07-29T09:51:38.637Z,1.70
2022-07-29T09:52:37.088Z,1.60
2022-07-29T09:53:37.108Z,1.80
2022-07-29T09:54:37.079Z,2.00
2022-07-29T09:55:37.051Z,1.70
2022-07-29T09:56:37.040Z,1.60
2022-07-29T09:57:37.020Z,1.80
2022-07-29T09:58:37.027Z,1.70
2022-07-29T09:59:37.021Z,1.90
2022-07-29T10:00:38.013Z,1.60
2022-07-29T10:01:37.005Z,1.70
2022-07-29T10:02:36.982Z,1.60
2022-07-29T10:03:37.943Z,1.70
2022-07-29T10:04:36.965Z,1.60
2022-07-29T10:05:37.117Z,1.70
2022-07-29T10:06:36.933Z,1.50
2022-07-29T10:07:36.936Z,1.80
2022-07-29T10:08:36.912Z,1.50
2022-07-29T10:09:36.943Z,1.70
2022-07-29T10:10:36.901Z,1.60
2022-07-29T10:11:49.754Z,1.80
2022-07-29T10:12:37.858Z,1.50
2022-07-29T10:13:36.845Z,1.50
2022-07-29T10:14:36.845Z,1.90
2022-07-29T10:15:36.827Z,1.60
2022-07-29T10:16:36.901Z,2.10
2022-07-29T10:17:36.799Z,1.70
2022-07-29T10:18:36.797Z,1.60
2022-07-29T10:19:36.789Z,2.00
2022-07-29T10:20:36.771Z,1.80
2022-07-29T10:21:36.859Z,1.70
2022-07-29T10:22:52.303Z,1.60
2022-07-29T10:23:46.379Z,2.10
2022-07-29T10:24:37.741Z,1.60
2022-07-29T10:25:36.700Z,1.90
2022-07-29T10:26:36.710Z,1.60
2022-07-29T10:27:36.688Z,1.90
2022-07-29T10:28:36.671Z,1.90
2022-07-29T10:29:36.674Z,1.40
2022-07-29T10:30:36.651Z,2.10
2022-07-29T10:31:36.670Z,1.80
2022-07-29T10:32:36.635Z,1.70
2022-07-29T10:33:36.614Z,1.70
2022-07-29T10:34:36.624Z,1.60
2022-07-29T10:35:36.597Z,1.70
2022-07-29T10:36:36.585Z,2.00
2022-07-29T10:37:36.810Z,1.70
2022-07-29T10:38:36.565Z,2.10
2022-07-29T10:39:44.588Z,1.70
2022-07-29T10:40:37.536Z,2.00
2022-07-29T10:41:44.381Z,2.20
2022-07-29T10:42:37.543Z,1.60
2022-07-29T10:43:36.508Z,2.30
2022-07-29T10:44:36.540Z,1.80
2022-07-29T10:45:36.477Z,1.90
2022-07-29T10:46:36.530Z,2.20
2022-07-29T10:47:36.459Z,2.00
2022-07-29T10:48:36.465Z,2.00
2022-07-29T10:49:36.491Z,2.00
2022-07-29T10:50:36.450Z,1.90
2022-07-29T10:51:36.410Z,1.90
2022-07-29T10:52:38.077Z,2.00
2022-07-29T10:53:36.381Z,2.20
2022-07-29T10:54:36.399Z,2.30
2022-07-29T10:55:36.387Z,2.30
2022-07-29T10:56:36.359Z,1.80
2022-07-29T10:58:37.354Z,2.00
2022-07-29T10:59:36.678Z,2.50
2022-07-29T11:00:36.314Z,2.20
2022-07-29T11:01:37.629Z,2.40
2022-07-29T11:02:42.387Z,2.60
2022-07-29T11:03:37.325Z,2.10
2022-07-29T11:04:36.274Z,2.20
2022-07-29T11:05:40.912Z,2.00
2022-07-29T11:06:37.247Z,2.10
2022-07-29T11:07:45.756Z,2.10
2022-07-29T11:08:37.225Z,2.20
2022-07-29T11:09:37.549Z,2.20
2022-07-29T11:10:36.194Z,2.00
2022-07-29T11:11:36.177Z,2.10
2022-07-29T11:12:36.198Z,2.20
2022-07-29T11:13:41.079Z,2.00
2022-07-29T11:14:37.149Z,2.10
2022-07-29T11:15:36.136Z,2.40
2022-07-29T11:16:36.118Z,2.00
2022-07-29T11:17:37.549Z,2.10
2022-07-29T11:18:37.129Z,2.30
2022-07-29T11:19:36.080Z,3.10
2022-07-29T11:20:36.571Z,1.90
2022-07-29T11:22:37.088Z,2.40
2022-07-29T11:23:37.052Z,2.40
2022-07-29T11:24:36.046Z,2.00
2022-07-29T11:25:42.455Z,2.20
2022-07-29T11:26:37.023Z,2.00
2022-07-29T11:27:36.001Z,1.90
2022-07-29T11:28:36.003Z,2.50
2022-07-29T11:29:40.066Z,2.10
2022-07-29T11:30:35.963Z,2.20
2022-07-29T11:31:35.973Z,2.20
2022-07-29T11:32:35.945Z,2.30
2022-07-29T11:33:54.394Z,2.10
2022-07-29T11:34:36.927Z,1.90
2022-07-29T11:35:38.452Z,2.40
2022-07-29T11:36:35.909Z,2.20
2022-07-29T11:37:44.479Z,2.10
2022-07-29T11:38:36.894Z,2.20
2022-07-29T11:39:36.307Z,2.20
2022-07-29T11:40:35.964Z,1.90
2022-07-29T11:41:35.836Z,2.20
2022-07-29T11:42:35.827Z,2.20
2022-07-29T11:43:36.829Z,2.20
2022-07-29T11:44:35.827Z,2.20
2022-07-29T11:45:44.895Z,2.20
2022-07-29T11:46:36.791Z,2.30
2022-07-29T11:47:39.429Z,2.40
2022-07-29T11:48:35.779Z,1.80
2022-07-29T11:49:35.760Z,2.00
2022-07-29T11:50:35.746Z,2.50
2022-07-29T11:51:35.722Z,2.10
2022-07-29T11:52:35.722Z,2.00
2022-07-29T11:53:36.723Z,2.00
2022-07-29T11:54:38.938Z,2.00
2022-07-29T11:55:36.704Z,2.00
2022-07-29T11:56:36.673Z,2.30
2022-07-29T11:57:37.217Z,2.00
2022-07-29T11:58:35.655Z,2.10
2022-07-29T11:59:35.636Z,2.10
2022-07-29T12:00:35.634Z,2.20
2022-07-29T12:01:35.630Z,2.10
2022-07-29T12:02:37.400Z,2.10
2022-07-29T12:03:36.902Z,2.20
2022-07-29T12:04:35.583Z,2.30
2022-07-29T12:05:36.182Z,2.20
2022-07-29T12:06:35.566Z,2.00
2022-07-29T12:07:35.564Z,2.20
2022-07-29T12:08:35.538Z,2.00
2022-07-29T12:09:40.092Z,1.90
2022-07-29T12:10:36.519Z,2.20
2022-07-29T12:11:35.499Z,2.30
2022-07-29T12:12:35.488Z,2.30
2022-07-29T12:13:37.421Z,2.30
2022-07-29T12:14:35.460Z,2.00
2022-07-29T12:15:45.960Z,2.30
2022-07-29T12:16:36.465Z,2.10
2022-07-29T12:17:35.446Z,2.00
2022-07-29T12:18:35.434Z,1.90
2022-07-29T12:19:35.431Z,2.00
2022-07-29T12:20:35.402Z,2.30
2022-07-29T12:21:35.382Z,1.90
2022-07-29T12:22:35.373Z,2.20
2022-07-29T12:23:35.662Z,2.00
2022-07-29T12:24:35.356Z,2.10
2022-07-29T12:25:35.360Z,2.40
2022-07-29T12:26:35.829Z,2.20
2022-07-29T12:27:35.343Z,2.30
2022-07-29T12:28:36.326Z,1.90
2022-07-29T12:29:35.942Z,2.00
2022-07-29T12:30:35.285Z,2.30
2022-07-29T12:31:42.861Z,2.20
2022-07-29T12:32:36.353Z,2.30
2022-07-29T12:33:35.316Z,2.10
2022-07-29T12:34:35.285Z,1.90
2022-07-29T12:35:35.228Z,2.10
2022-07-29T12:36:35.219Z,2.00
2022-07-29T12:37:40.716Z,2.20
2022-07-29T12:38:36.232Z,2.10
2022-07-29T12:39:35.191Z,2.30
2022-07-29T12:40:35.161Z,2.30
2022-07-29T12:41:35.162Z,2.10
2022-07-29T12:42:35.151Z,2.00
2022-07-29T12:43:35.173Z,2.00
2022-07-29T12:44:35.131Z,2.10
2022-07-29T12:45:35.114Z,2.00
2022-07-29T12:46:35.131Z,2.20
2022-07-29T12:47:35.231Z,2.10
2022-07-29T12:48:35.097Z,2.20
2022-07-29T12:49:38.231Z,1.90
2022-07-29T12:50:35.044Z,2.10
2022-07-29T12:51:35.046Z,2.20
2022-07-29T12:52:35.036Z,1.90
2022-07-29T12:53:35.037Z,2.20
2022-07-29T12:54:35.005Z,1.90
2022-07-29T12:55:34.996Z,1.80
2022-07-29T12:56:43.749Z,2.10
2022-07-29T12:57:35.977Z,1.90
2022-07-29T12:58:34.977Z,2.10
2022-07-29T12:59:34.955Z,2.20
2022-07-29T13:00:34.957Z,2.10
2022-07-29T13:01:34.960Z,2.30
2022-07-29T13:02:34.961Z,2.10
2022-07-29T13:03:35.749Z,2.30
2022-07-29T13:04:34.891Z,2.10
2022-07-29T13:05:34.890Z,2.20
2022-07-29T13:06:34.876Z,1.90
2022-07-29T13:07:55.804Z,2.20
2022-07-29T13:08:35.882Z,2.20
2022-07-29T13:09:34.843Z,2.20
2022-07-29T13:10:34.831Z,2.20
2022-07-29T13:11:34.811Z,2.30
2022-07-29T13:12:34.802Z,2.20
2022-07-29T13:13:34.803Z,2.30
2022-07-29T13:14:34.793Z,1.80
2022-07-29T13:15:35.563Z,2.20
2022-07-29T13:16:34.808Z,2.40
2022-07-29T13:17:34.744Z,2.10
2022-07-29T13:18:34.752Z,2.10
2022-07-29T13:19:34.725Z,2.00
2022-07-29T13:20:34.705Z,2.20
2022-07-29T13:21:34.706Z,2.10